Time;durP1;ratioP1;P1;durP2;ratioP2;P2;SDS_P1;SDS_P2;PMS_P1;PMS_P2;Temp;Humidity;BMP_temperature;BMP_pressure;BME280_temperature;BME280_humidity;BME280_pressure;Samples;Min_cycle;Max_cycle;Signal;HPM_P1;HPM_P2
2022/10/24 00:01:14;;;;;;;6.00;1.93;;;;;;;15.08;100.00;100364.97;5094634;28;20071;-36
2022/10/24 00:03:40;;;;;;;10.60;2.55;;;;;;;15.06;100.00;100358.97;5094282;28;20289;-36
2022/10/24 00:06:07;;;;;;;5.18;1.52;;;;;;;15.09;100.00;100366.59;5094190;28;20165;-36
2022/10/24 00:08:34;;;;;;;7.05;1.80;;;;;;;15.10;100.00;100372.88;5093853;28;20028;-36
2022/10/24 00:11:00;;;;;;;8.27;2.50;;;;;;;15.14;100.00;100368.50;5093745;28;20341;-36
2022/10/24 00:13:25;;;;;;;8.13;1.75;;;;;;;15.06;100.00;100353.53;5094343;28;20103;-36
2022/10/24 00:15:50;;;;;;;4.72;1.85;;;;;;;15.08;100.00;100355.97;5094004;28;20024;-36
2022/10/24 00:18:16;;;;;;;;;;;;;;;15.15;100.00;100354.63;5094558;28;20036;-36
2022/10/24 00:20:42;;;;;;;13.47;2.40;;;;;;;15.09;100.00;100339.38;5093540;28;20413;-36
2022/10/24 00:23:08;;;;;;;8.35;2.10;;;;;;;15.16;100.00;100345.34;5094128;28;20368;-36
2022/10/24 00:25:34;;;;;;;6.43;1.70;;;;;;;15.22;100.00;100354.31;5093900;28;20032;-36
2022/10/24 00:28:00;;;;;;;5.13;1.70;;;;;;;15.24;100.00;100354.06;5094399;28;20101;-36
2022/10/24 00:30:25;;;;;;;;;;;;;;;15.25;100.00;100347.53;5093863;28;20035;-36
2022/10/24 00:32:51;;;;;;;4.22;1.65;;;;;;;15.21;100.00;100355.44;5094250;28;19915;-36
2022/10/24 00:35:16;;;;;;;;;;;;;;;15.26;100.00;100341.00;5093709;28;20036;-36
2022/10/24 00:37:42;;;;;;;8.00;1.75;;;;;;;15.30;99.53;100351.06;5093570;28;20267;-36
2022/10/24 00:40:09;;;;;;;;;;;;;;;15.30;99.39;100350.25;5093522;28;20024;-33
2022/10/24 00:42:34;;;;;;;6.85;1.70;;;;;;;15.33;98.08;100350.53;5093460;28;19912;-34
2022/10/24 00:45:00;;;;;;;5.38;2.00;;;;;;;15.28;97.76;100341.53;5093093;28;20464;-34
2022/10/24 00:47:26;;;;;;;;;;;;;;;15.37;97.89;100348.03;5094337;28;20031;-34
2022/10/24 00:50:03;;;;;;;5.10;1.77;;;;;;;15.38;97.30;100341.53;5093343;28;20261;-34
2022/10/24 00:52:37;;;;;;;4.35;1.70;;;;;;;15.39;96.69;100345.88;5093609;28;20028;-33
2022/10/24 00:55:04;;;;;;;6.97;1.77;;;;;;;15.32;96.81;100329.81;5093541;28;20031;-33
2022/10/24 00:57:34;;;;;;;5.07;1.67;;;;;;;15.37;95.89;100345.31;5093746;28;20103;-34
2022/10/24 01:00:09;;;;;;;7.82;2.08;;;;;;;15.37;96.13;100334.44;5092948;28;20044;-34
2022/10/24 01:02:36;;;;;;;8.50;1.90;;;;;;;15.29;96.49;100321.38;5093256;28;20032;-34
2022/10/24 01:05:03;;;;;;;6.07;1.90;;;;;;;15.34;96.25;100327.63;5092824;28;20383;-34
2022/10/24 01:07:59;;;;;;;5.63;1.60;;;;;;;15.30;96.26;100331.19;5093035;28;20035;-34
2022/10/24 01:10:50;;;;;;;6.03;1.52;;;;;;;15.32;95.99;100337.16;5093352;28;20028;-34
2022/10/24 01:13:24;;;;;;;5.95;1.70;;;;;;;15.20;95.40;100321.94;5093257;28;20063;-34
2022/10/24 01:16:08;;;;;;;7.78;1.85;;;;;;;15.32;95.90;100335.25;5093221;28;20124;-34
2022/10/24 01:19:04;;;;;;;6.30;1.48;;;;;;;15.34;95.15;100335.00;5093021;28;20027;-33
2022/10/24 01:21:42;;;;;;;4.93;1.83;;;;;;;15.31;95.24;100327.34;5093482;28;20097;-34
2022/10/24 01:24:26;;;;;;;6.45;1.95;;;;;;;15.33;94.95;100330.66;5093153;28;20262;-34
2022/10/24 01:27:28;;;;;;;4.30;1.85;;;;;;;15.34;94.54;100332.28;5092927;28;20020;-34
2022/10/24 01:30:11;;;;;;;4.82;1.73;;;;;;;15.34;94.21;100324.09;5093496;28;20028;-34
2022/10/24 01:32:40;;;;;;;8.38;2.00;;;;;;;15.27;93.70;100318.09;5097034;28;20028;-35
2022/10/24 01:35:26;;;;;;;5.68;1.50;;;;;;;15.27;93.88;100318.09;5097259;28;20441;-36
2022/10/24 01:38:00;;;;;;;11.40;2.50;;;;;;;15.33;93.58;100333.38;5097581;28;20052;-36
2022/10/24 01:40:32;;;;;;;6.65;1.65;;;;;;;15.32;93.70;100337.16;5097190;28;20040;-36
2022/10/24 01:43:05;;;;;;;4.55;1.50;;;;;;;15.25;93.41;100317.56;5097670;28;20384;-36
2022/10/24 01:45:37;;;;;;;6.43;1.90;;;;;;;15.27;93.44;100316.19;5096667;28;20032;-36
2022/10/24 01:48:06;;;;;;;6.13;2.10;;;;;;;15.30;92.37;100320.28;5096882;28;20035;-36
2022/10/24 01:50:35;;;;;;;4.63;1.40;;;;;;;15.24;93.24;100315.94;5096769;28;20028;-36
2022/10/24 01:53:01;;;;;;;3.65;1.45;;;;;;;15.21;92.45;100303.69;5097017;28;20028;-36
2022/10/24 01:55:29;;;;;;;4.53;1.60;;;;;;;15.19;92.54;100303.16;5097174;28;20464;-36
2022/10/24 01:57:54;;;;;;;6.18;1.92;;;;;;;15.18;92.34;100294.16;5097100;28;20028;-36
2022/10/24 02:00:21;;;;;;;5.60;1.60;;;;;;;15.25;91.63;100303.94;5096814;28;20390;-36
2022/10/24 02:03:00;;;;;;;6.25;1.92;;;;;;;15.10;92.72;100285.72;5096708;28;20626;-36
2022/10/24 02:05:33;;;;;;;4.78;1.40;;;;;;;15.18;91.94;100306.97;5096985;28;20036;-36
2022/10/24 02:08:06;;;;;;;7.75;1.80;;;;;;;15.20;91.07;100302.88;5096256;28;20032;-36
2022/10/24 02:10:40;;;;;;;8.93;1.75;;;;;;;15.18;91.96;100305.06;5096388;28;20032;-36
2022/10/24 02:13:13;;;;;;;7.47;1.88;;;;;;;15.13;92.28;100301.53;5096201;28;20126;-36
2022/10/24 02:15:48;;;;;;;5.63;1.70;;;;;;;15.12;92.11;100305.31;5096309;28;20027;-36
2022/10/24 02:18:14;;;;;;;4.15;1.80;;;;;;;15.09;90.69;100303.97;5096407;28;20024;-36
2022/10/24 02:20:50;;;;;;;3.70;1.48;;;;;;;15.02;90.82;100287.09;5096255;28;20376;-36
2022/10/24 02:23:42;;;;;;;5.10;1.70;;;;;;;15.11;91.44;100307.22;5096492;28;20031;-36
2022/10/24 02:26:13;;;;;;;4.38;1.38;;;;;;;15.13;nan;100302.34;5095790;28;20044;-36
2022/10/24 02:28:44;;;;;;;4.57;1.50;;;;;;;15.12;90.48;100303.41;5096382;28;20020;-36
2022/10/24 02:31:20;;;;;;;6.97;1.42;;;;;;;15.11;90.57;100300.97;5096062;28;20117;-36
2022/10/24 02:33:47;;;;;;;;;;;;;;;15.11;91.69;100292.78;5097121;28;20039;-36
2022/10/24 02:36:16;;;;;;;4.07;1.70;;;;;;;15.04;90.89;100293.09;5095976;28;19961;-36
2022/10/24 02:38:44;;;;;;;5.82;1.48;;;;;;;15.03;89.70;100282.44;5096244;28;20074;-36
2022/10/24 02:41:17;;;;;;;5.03;1.40;;;;;;;15.05;90.25;100293.91;5094982;28;20043;-36
2022/10/24 02:43:44;;;;;;;4.78;1.42;;;;;;;14.99;89.70;100287.66;5095418;28;20040;-36
2022/10/24 02:46:12;;;;;;;4.28;1.30;;;;;;;15.11;88.66;100301.78;5094422;28;20451;-36
2022/10/24 02:48:44;;;;;;;4.28;1.50;;;;;;;15.07;89.16;100292.53;5095430;28;20085;-36
2022/10/24 02:51:11;;;;;;;9.32;1.85;;;;;;;15.10;88.53;100302.88;5095671;28;20036;-36
2022/10/24 02:53:38;;;;;;;3.58;1.65;;;;;;;15.13;88.25;100296.91;5095747;28;20457;-36
2022/10/24 02:56:04;;;;;;;9.32;1.65;;;;;;;15.14;88.22;100298.53;5094274;28;20325;-36
2022/10/24 02:58:29;;;;;;;5.15;1.30;;;;;;;15.11;88.80;100309.94;5096064;28;20176;-36
2022/10/24 03:00:54;;;;;;;4.77;1.20;;;;;;;15.09;88.37;100298.53;5095126;28;20040;-36
2022/10/24 03:03:21;;;;;;;;;;;;;;;15.10;89.33;100308.31;5096477;28;20036;-36
2022/10/24 03:05:46;;;;;;;4.35;1.30;;;;;;;15.12;87.60;100310.75;5095972;28;19973;-36
2022/10/24 03:08:12;;;;;;;3.70;1.50;;;;;;;15.10;88.13;100308.31;5095927;28;20372;-36
2022/10/24 03:10:37;;;;;;;;;;;;;;;15.10;88.44;100307.50;5095629;28;20529;-36
2022/10/24 03:13:03;;;;;;;7.30;1.40;;;;;;;15.10;87.73;100305.59;5095933;28;19908;-36
2022/10/24 03:15:28;;;;;;;;;;;;;;;15.13;88.13;100310.50;5095788;28;20024;-36
2022/10/24 03:17:53;;;;;;;4.95;1.25;;;;;;;15.17;86.57;100314.28;5095406;28;20003;-36
2022/10/24 03:20:19;;;;;;;6.22;1.20;;;;;;;15.18;86.79;100307.78;5094695;28;20028;-36
2022/10/24 03:22:44;;;;;;;;;;;;;;;15.18;86.96;100315.94;5095491;28;20072;-36
2022/10/24 03:25:10;;;;;;;5.47;1.42;;;;;;;15.17;86.88;100308.84;5095423;28;19915;-36
2022/10/24 03:27:36;;;;;;;3.72;1.30;;;;;;;15.20;86.20;100305.59;5095399;28;20415;-36
2022/10/24 03:30:01;;;;;;;5.47;1.02;;;;;;;15.16;86.88;100303.69;5094558;28;20199;-36
2022/10/24 03:32:27;;;;;;;2.88;1.00;;;;;;;15.15;86.40;100296.63;5095235;28;20036;-36
2022/10/24 03:34:52;;;;;;;4.30;1.02;;;;;;;15.08;86.29;100277.84;5095031;28;20506;-36
2022/10/24 03:37:18;;;;;;;2.95;1.05;;;;;;;15.21;86.19;100298.22;5095458;28;20465;-36
2022/10/24 03:39:43;;;;;;;;;;;;;;;15.20;87.44;100300.13;5095735;28;20039;-36
2022/10/24 03:42:08;;;;;;;5.47;1.20;;;;;;;15.21;86.71;100290.06;5094788;28;19932;-36
2022/10/24 03:44:34;;;;;;;5.03;1.53;;;;;;;15.20;87.13;100300.13;5094594;28;20274;-36
2022/10/24 03:46:59;;;;;;;5.05;1.42;;;;;;;15.17;87.23;100289.78;5095028;28;20273;-36
2022/10/24 03:49:24;;;;;;;;;;;;;;;15.19;87.37;100290.34;5095012;28;20032;-36
2022/10/24 03:51:49;;;;;;;3.58;1.33;;;;;;;15.14;87.46;100281.38;5094377;28;19912;-36
2022/10/24 03:54:15;;;;;;;;;;;;;;;15.14;88.32;100279.47;5094463;28;20058;-37
2022/10/24 03:56:42;;;;;;;6.43;1.27;;;;;;;15.06;87.65;100280.00;5094280;28;19912;-36
2022/10/24 03:59:08;;;;;;;4.75;1.40;;;;;;;15.05;87.52;100272.94;5094030;28;20028;-36
2022/10/24 04:01:33;;;;;;;2.78;1.30;;;;;;;15.03;87.82;100277.84;5094311;28;20028;-36
2022/10/24 04:03:58;;;;;;;7.00;1.40;;;;;;;14.96;88.63;100269.13;5094525;28;20502;-36
2022/10/24 04:06:24;;;;;;;4.15;1.40;;;;;;;14.97;88.66;100281.66;5094529;28;20035;-36
2022/10/24 04:08:49;;;;;;;8.15;1.50;;;;;;;14.90;88.36;100264.78;5094876;28;20036;-36
2022/10/24 04:11:14;;;;;;;;;;;;;;;14.98;88.85;100298.78;5094477;28;20032;-36
2022/10/24 04:13:40;;;;;;;6.05;1.40;;;;;;;14.99;88.68;100292.28;5094014;28;19977;-37
2022/10/24 04:16:06;;;;;;;5.93;1.40;;;;;;;14.99;88.33;100290.38;5109645;28;20024;-36
2022/10/24 04:18:31;;;;;;;5.20;1.20;;;;;;;15.01;88.20;100292.81;5094210;28;20266;-36
2022/10/24 04:20:57;;;;;;;4.43;1.30;;;;;;;15.05;88.17;100281.09;5094236;28;20371;-36
2022/10/24 04:23:22;;;;;;;8.38;1.65;;;;;;;15.02;88.80;100270.75;5094209;28;20024;-36
2022/10/24 04:25:47;;;;;;;6.90;1.40;;;;;;;15.02;88.27;100284.34;5094078;28;20028;-36
2022/10/24 04:28:12;;;;;;;6.15;1.50;;;;;;;15.01;88.21;100260.94;5093781;28;20342;-36
2022/10/24 04:30:38;;;;;;;5.97;1.47;;;;;;;15.10;87.60;100275.66;5093512;28;20031;-36
2022/10/24 04:33:03;;;;;;;4.82;1.35;;;;;;;15.05;88.36;100278.38;5094429;28;20273;-36
2022/10/24 04:35:29;;;;;;;6.78;1.13;;;;;;;15.06;88.19;100277.28;5093712;28;20050;-36
2022/10/24 04:37:54;;;;;;;;;;;;;;;15.09;88.39;100279.47;5094280;28;20036;-36
2022/10/24 04:40:19;;;;;;;6.10;1.50;;;;;;;15.09;87.24;100270.50;5093128;28;19912;-36
2022/10/24 04:42:45;;;;;;;;;;;;;;;15.09;87.64;100274.03;5094055;28;20035;-36
2022/10/24 04:45:10;;;;;;;2.70;1.10;;;;;;;15.10;87.18;100278.38;5093242;28;19907;-36
2022/10/24 04:47:35;;;;;;;;;;;;;;;15.10;87.31;100278.38;5093579;28;20044;-36
2022/10/24 04:50:01;;;;;;;8.05;1.30;;;;;;;15.02;87.20;100272.66;5094099;28;19908;-36
2022/10/24 04:52:26;;;;;;;7.35;1.75;;;;;;;15.12;86.36;100276.19;5093456;28;20107;-36
2022/10/24 04:54:53;;;;;;;4.05;1.20;;;;;;;15.14;86.51;100289.53;5093852;28;20050;-36
2022/10/24 04:57:18;;;;;;;5.00;1.50;;;;;;;15.14;86.21;100276.75;5093765;28;20033;-36
2022/10/24 04:59:43;;;;;;;6.03;1.37;;;;;;;15.14;86.84;100286.81;5093747;28;20044;-36
2022/10/24 05:02:09;;;;;;;5.87;1.33;;;;;;;15.12;86.52;100286.25;5093832;28;20265;-36
2022/10/24 05:04:34;;;;;;;;;;;;;;;15.10;87.50;100283.81;5093551;28;20081;-36
2022/10/24 05:07:00;;;;;;;6.03;1.50;;;;;;;15.05;87.45;100293.91;5093653;28;19908;-36
2022/10/24 05:09:25;;;;;;;4.03;1.35;;;;;;;15.10;87.19;100286.53;5093442;28;20262;-36
2022/10/24 05:11:53;;;;;;;5.70;1.53;;;;;;;15.10;87.41;100286.53;5093696;28;20031;-36
2022/10/24 05:14:18;;;;;;;5.75;1.58;;;;;;;15.08;87.44;100291.47;5092336;28;20266;-36
2022/10/24 05:16:47;;;;;;;5.57;1.30;;;;;;;15.10;87.04;100291.19;5093494;28;20031;-36
2022/10/24 05:19:12;;;;;;;8.65;1.83;;;;;;;15.09;87.70;100295.00;5093313;28;20021;-36
2022/10/24 05:21:37;;;;;;;5.43;1.30;;;;;;;15.06;87.41;100296.34;5093218;28;20031;-36
2022/10/24 05:24:03;;;;;;;5.47;1.23;;;;;;;15.05;87.96;100302.88;5093596;28;20031;-36
2022/10/24 05:26:28;;;;;;;6.88;2.05;;;;;;;15.03;87.94;100302.34;5093231;28;20031;-36
2022/10/24 05:28:53;;;;;;;8.32;2.08;;;;;;;15.03;87.99;100306.97;5093266;28;20093;-36
2022/10/24 05:31:19;;;;;;;4.40;1.43;;;;;;;15.04;88.30;100305.91;5093237;28;20392;-36
2022/10/24 05:33:44;;;;;;;4.40;1.30;;;;;;;15.01;88.38;100309.16;5093239;28;20258;-36
2022/10/24 05:36:09;;;;;;;;;;;;;;;15.06;89.12;100312.69;5093837;28;20078;-36
2022/10/24 05:38:34;;;;;;;6.13;1.37;;;;;;;15.02;88.29;100294.44;5093196;28;19908;-36
2022/10/24 05:41:00;;;;;;;6.30;1.40;;;;;;;15.10;88.71;100312.97;5093198;28;20285;-36
2022/10/24 05:43:25;;;;;;;6.65;1.58;;;;;;;15.13;88.99;100317.88;5093105;28;20519;-36
2022/10/24 05:45:50;;;;;;;;;;;;;;;15.14;89.02;100306.69;5092203;28;20427;-36
2022/10/24 05:48:16;;;;;;;7.67;1.60;;;;;;;15.17;88.28;100302.59;5093242;28;19941;-36
2022/10/24 05:50:42;;;;;;;6.20;1.90;;;;;;;15.22;88.63;100308.03;5092954;28;20803;-36
2022/10/24 05:53:07;;;;;;;;;;;;;;;15.20;88.81;100300.13;5093590;28;20024;-36
2022/10/24 05:55:33;;;;;;;4.47;1.33;;;;;;;15.19;88.49;100306.69;5095884;28;19912;-36
2022/10/24 05:57:58;;;;;;;;;;;;;;;15.20;88.88;100310.22;5112231;28;20035;-36
2022/10/24 06:00:24;;;;;;;5.07;1.80;;;;;;;15.20;87.85;100319.22;5113459;28;19916;-36
2022/10/24 06:02:49;;;;;;;6.77;1.53;;;;;;;15.15;88.40;100308.31;5113583;28;20356;-36
2022/10/24 06:05:14;;;;;;;;;;;;;;;15.20;88.64;100315.66;5114204;28;20370;-36
2022/10/24 06:07:40;;;;;;;5.63;1.37;;;;;;;15.11;88.44;100301.78;5113959;28;19908;-36
2022/10/24 06:10:06;;;;;;;;;;;;;;;15.17;88.26;100311.56;5113293;28;20035;-35
2022/10/24 06:12:32;;;;;;;5.28;1.75;;;;;;;15.11;88.61;100323.56;5113866;28;20271;-35
2022/10/24 06:14:58;;;;;;;6.28;1.33;;;;;;;15.10;88.97;100318.41;5112753;28;20467;-35
2022/10/24 06:17:24;;;;;;;6.25;1.30;;;;;;;15.00;88.80;100307.53;5116286;28;20051;-35
2022/10/24 06:19:49;;;;;;;5.00;1.20;;;;;;;15.07;89.15;100322.47;5117102;28;20055;-35
2022/10/24 06:22:15;;;;;;;;;;;;;;;15.08;89.08;100321.41;5117347;28;20140;-35
2022/10/24 06:24:40;;;;;;;8.65;1.80;;;;;;;15.08;88.87;100326.00;5116753;28;20266;-35
2022/10/24 06:27:06;;;;;;;5.37;1.57;;;;;;;15.05;89.06;100329.31;5117370;28;20059;-35
2022/10/24 06:29:31;;;;;;;7.80;1.63;;;;;;;15.03;89.06;100324.13;5116485;28;20277;-35
2022/10/24 06:31:57;;;;;;;9.75;1.90;;;;;;;15.03;89.06;100323.28;5117171;27;20259;-35
2022/10/24 06:34:22;;;;;;;;;;;;;;;15.01;89.67;100337.19;5117021;28;20035;-35
2022/10/24 06:36:47;;;;;;;6.50;1.70;;;;;;;14.98;90.00;100339.63;5116865;28;20014;-35
2022/10/24 06:39:13;;;;;;;11.33;2.10;;;;;;;14.99;90.02;100344.00;5117351;28;20261;-35
2022/10/24 06:41:38;;;;;;;;;;;;;;;14.97;90.10;100347.00;5117235;28;20494;-35
2022/10/24 06:44:04;;;;;;;10.47;1.90;;;;;;;14.96;89.84;100350.81;5116391;28;19918;-35
2022/10/24 06:46:29;;;;;;;;;;;;;;;14.95;90.35;100354.63;5116470;28;20124;-35
2022/10/24 06:48:55;;;;;;;8.98;2.35;;;;;;;14.89;90.40;100350.28;5117145;28;20310;-35
2022/10/24 06:51:21;;;;;;;6.82;1.90;;;;;;;14.94;90.31;100366.59;5116233;28;20065;-35
2022/10/24 06:53:46;;;;;;;7.40;1.80;;;;;;;14.95;90.67;100365.50;5116897;28;20031;-35
2022/10/24 06:56:13;;;;;;;5.57;1.50;;;;;;;14.97;90.78;100371.50;5116174;27;20368;-35
2022/10/24 06:58:39;;;;;;;10.30;2.63;;;;;;;14.92;90.39;100363.31;5116347;28;20027;-35
2022/10/24 07:01:09;;;;;;;5.55;1.67;;;;;;;14.97;90.62;100373.41;5116489;28;20087;-35
2022/10/24 07:03:34;;;;;;;5.50;1.77;;;;;;;14.99;90.87;100372.06;5116587;28;20028;-35
2022/10/24 07:06:05;;;;;;;9.80;2.55;;;;;;;15.06;90.80;100382.66;5115629;28;20049;-35
2022/10/24 07:08:31;;;;;;;8.15;1.73;;;;;;;14.96;90.90;100366.31;5116176;28;20062;-35
2022/10/24 07:10:56;;;;;;;7.03;2.03;;;;;;;15.10;90.62;100391.94;5115827;27;20059;-35
2022/10/24 07:13:21;;;;;;;9.67;2.07;;;;;;;15.10;90.38;100381.03;5115617;28;20032;-35
2022/10/24 07:15:46;;;;;;;11.13;2.27;;;;;;;15.10;90.78;100384.56;5115862;28;20315;-35
2022/10/24 07:18:13;;;;;;;14.73;2.40;;;;;;;15.08;91.19;100381.31;5116267;28;20023;-35
2022/10/24 07:20:38;;;;;;;5.57;1.70;;;;;;;15.07;91.83;100390.56;5115504;28;20638;-35
2022/10/24 07:23:04;;;;;;;7.97;2.47;;;;;;;15.09;91.58;100403.91;5115348;28;20068;-35
2022/10/24 07:25:29;;;;;;;;;;;;;;;15.10;92.48;100400.09;5116352;28;20032;-35
2022/10/24 07:27:54;;;;;;;8.97;1.97;;;;;;;15.10;92.42;100403.63;5115662;28;19907;-35
2022/10/24 07:30:19;;;;;;;;;;;;;;;15.14;92.93;100412.91;5116738;28;20024;-35
2022/10/24 07:32:45;;;;;;;9.80;1.97;;;;;;;15.18;92.94;100421.34;5115441;28;19957;-35
2022/10/24 07:35:11;;;;;;;7.37;1.70;;;;;;;15.12;93.73;100409.63;5115673;28;20323;-35
2022/10/24 07:37:37;;;;;;;12.60;2.38;;;;;;;15.24;93.49;100422.97;5115616;28;20031;-35
2022/10/24 07:40:03;;;;;;;7.33;2.00;;;;;;;15.26;93.25;100426.25;5115226;28;20023;-35
2022/10/24 07:42:28;;;;;;;5.97;1.45;;;;;;;15.24;92.84;100422.97;5115269;28;20281;-35
2022/10/24 07:44:53;;;;;;;;;;;;;;;15.26;93.12;100433.59;5116083;28;20024;-35
2022/10/24 07:47:18;;;;;;;7.63;2.13;;;;;;;15.27;91.68;100427.88;5115611;28;19996;-35
2022/10/24 07:49:44;;;;;;;10.05;1.90;;;;;;;15.33;90.75;100445.06;5114871;28;20482;-35
2022/10/24 07:52:09;;;;;;;5.72;1.75;;;;;;;15.30;nan;100438.22;5115858;28;20035;-35
2022/10/24 07:54:34;;;;;;;;;;;;;;;15.38;91.10;100450.50;5115139;28;20055;-35
2022/10/24 07:56:59;;;;;;;8.70;1.83;;;;;;;15.36;91.25;100452.66;5115578;28;19915;-35
2022/10/24 07:59:25;;;;;;;;;;;;;;;15.37;91.55;100465.19;5115357;28;20046;-35
2022/10/24 08:01:50;;;;;;;8.83;1.73;;;;;;;15.24;92.30;100450.22;5115510;28;19912;-35
2022/10/24 08:04:15;;;;;;;;;;;;;;;15.31;92.91;100450.75;5115178;28;20483;-35
2022/10/24 08:06:41;;;;;;;6.30;1.80;;;;;;;15.31;92.30;100445.31;5114505;28;19968;-35
2022/10/24 08:09:07;;;;;;;;;;;;;;;15.36;92.63;100463.56;5115519;28;20055;-35
2022/10/24 08:11:32;;;;;;;8.57;1.75;;;;;;;15.43;91.65;100461.41;5114771;28;19965;-34
2022/10/24 08:13:58;;;;;;;;;;;;;;;15.49;92.13;100478.56;5115442;27;20020;-34
2022/10/24 08:16:24;;;;;;;7.45;1.58;;;;;;;15.46;90.90;100458.13;5114881;28;20309;-35
2022/10/24 08:18:52;;;;;;;10.18;1.90;;;;;;;15.55;90.25;100477.47;5114560;28;20046;-35
2022/10/24 08:21:19;;;;;;;9.88;2.10;;;;;;;15.53;90.64;100474.22;5113455;28;20027;-35
2022/10/24 08:23:47;;;;;;;7.93;1.88;;;;;;;15.54;90.72;100484.81;5114740;28;20028;-34
2022/10/24 08:26:15;;;;;;;5.53;1.60;;;;;;;15.56;90.78;100484.53;5114413;28;20162;-35
2022/10/24 08:28:42;;;;;;;5.70;1.55;;;;;;;15.54;90.41;100484.00;5114456;28;20092;-35
2022/10/24 08:31:12;;;;;;;6.70;1.80;;;;;;;15.56;90.29;100488.09;5114282;28;20036;-35
2022/10/24 08:33:38;;;;;;;7.03;1.65;;;;;;;15.54;91.34;100517.53;5113923;28;20030;-35
2022/10/24 08:36:06;;;;;;;11.35;2.33;;;;;;;15.58;90.27;100498.75;5114225;28;20059;-35
2022/10/24 08:38:32;;;;;;;8.02;2.00;;;;;;;15.57;89.38;100484.28;5114925;28;20329;-35
2022/10/24 08:40:58;;;;;;;7.13;1.58;;;;;;;15.64;88.86;100486.78;5113660;28;20023;-35
2022/10/24 08:43:24;;;;;;;7.40;1.90;;;;;;;15.66;88.77;100479.13;5114423;28;20455;-35
2022/10/24 08:46:02;;;;;;;;;;;;;;;15.74;88.39;100494.94;5114595;27;20031;-35
2022/10/24 08:48:50;;;;;;;6.43;1.60;;;;;;;15.73;87.09;100479.69;5114549;28;19907;-34
2022/10/24 08:51:33;;;;;;;7.10;1.45;;;;;;;15.89;86.82;100494.09;5113619;28;20044;-34
2022/10/24 08:54:00;;;;;;;6.68;1.65;;;;;;;15.96;86.16;100487.28;5113925;28;20035;-35
2022/10/24 08:56:30;;;;;;;7.95;2.00;;;;;;;16.04;85.69;100504.16;5113831;28;20134;-34
2022/10/24 08:58:58;;;;;;;6.80;1.95;;;;;;;16.08;84.92;100486.97;5113689;28;20505;-35
2022/10/24 09:01:36;;;;;;;7.20;1.70;;;;;;;16.14;84.59;100504.97;5114063;28;20092;-35
2022/10/24 09:04:05;;;;;;;8.13;1.63;;;;;;;16.19;84.54;100504.94;5114593;28;20114;-34
2022/10/24 09:06:31;;;;;;;5.40;1.42;;;;;;;16.25;83.81;100508.50;5114237;28;20157;-35
2022/10/24 09:09:10;;;;;;;4.68;1.20;;;;;;;16.30;83.41;100505.75;5113410;28;20069;-35
2022/10/24 09:11:57;;;;;;;6.60;1.85;;;;;;;16.34;83.05;100506.00;5113546;28;20032;-35
2022/10/24 09:14:22;;;;;;;;;;;;;;;16.42;82.62;100510.91;5114681;28;20024;-35
2022/10/24 09:17:09;;;;;;;6.67;1.63;;;;;;;16.44;82.43;100511.44;5113912;28;19960;-35
2022/10/24 09:19:35;;;;;;;;;;;;;;;16.52;82.58;100513.59;5114663;28;20028;-35
2022/10/24 09:22:01;;;;;;;5.55;1.25;;;;;;;16.54;81.31;100518.75;5113516;28;20329;-35
2022/10/24 09:24:59;;;;;;;8.10;1.95;;;;;;;16.58;79.92;100517.94;5114342;28;20031;-35
2022/10/24 09:27:26;;;;;;;;;;;;;;;16.64;80.98;100519.56;5109677;28;20147;-35
2022/10/24 09:29:51;;;;;;;;;;;;;;;16.73;80.66;100528.00;5113759;28;20371;-35
2022/10/24 09:32:25;;;;;;;3.60;1.08;;;;;;;16.74;79.56;100529.66;5113393;28;20007;-35
2022/10/24 09:34:51;;;;;;;5.00;1.13;;;;;;;16.75;79.19;100522.28;5113994;28;20384;-35
2022/10/24 09:37:40;;;;;;;6.53;1.67;;;;;;;16.74;80.03;100535.13;5113438;28;20538;-35
2022/10/24 09:40:12;;;;;;;6.70;1.33;;;;;;;16.79;79.45;100531.53;5113871;28;20424;-35
2022/10/24 09:42:39;;;;;;;5.72;1.60;;;;;;;16.82;78.14;100541.91;5113769;28;20031;-35
2022/10/24 09:45:26;;;;;;;7.07;1.60;;;;;;;16.88;77.75;100549.78;5113883;28;20035;-35
2022/10/24 09:47:55;;;;;;;7.35;1.85;;;;;;;16.91;77.57;100545.69;5113398;28;20024;-35
2022/10/24 09:50:22;;;;;;;7.80;1.70;;;;;;;16.92;77.50;100547.31;5113575;28;20038;-35
2022/10/24 09:52:51;;;;;;;5.47;1.63;;;;;;;16.84;77.36;100521.41;5117373;28;20449;-35
2022/10/24 09:55:20;;;;;;;6.97;1.60;;;;;;;16.98;78.42;100535.25;5117470;28;20406;-35
2022/10/24 09:57:46;;;;;;;7.05;1.50;;;;;;;16.98;77.47;100548.91;5117483;28;20047;-35
2022/10/24 10:00:29;;;;;;;3.95;1.40;;;;;;;17.08;77.24;100553.50;5117388;28;20096;-35
2022/10/24 10:02:58;;;;;;;5.13;1.33;;;;;;;17.11;76.24;100553.78;5117698;28;20369;-36
2022/10/24 10:05:24;;;;;;;6.05;1.83;;;;;;;17.06;77.43;100558.44;5117870;28;20106;-35
2022/10/24 10:07:50;;;;;;;5.30;1.45;;;;;;;17.15;77.00;100568.50;5117218;28;20058;-35
2022/10/24 10:10:24;;;;;;;7.05;1.85;;;;;;;17.28;77.26;100569.00;5117066;28;20450;-36
2022/10/24 10:13:10;;;;;;;7.32;1.80;;;;;;;17.30;77.15;100573.06;5116729;28;20028;-36
2022/10/24 10:15:44;;;;;;;8.27;1.90;;;;;;;17.36;77.00;100562.91;5116623;28;20484;-35
2022/10/24 10:18:18;;;;;;;5.65;1.58;;;;;;;17.41;76.50;100571.91;5117401;28;20364;-35
2022/10/24 10:20:44;;;;;;;9.35;2.00;;;;;;;17.36;76.36;100590.25;5116513;28;20130;-35
2022/10/24 10:23:15;;;;;;;;;;;;;;;17.48;78.20;100586.09;5117429;28;20024;-35
2022/10/24 10:25:40;;;;;;;6.68;2.17;;;;;;;17.53;75.33;100596.16;5116734;28;19936;-35
2022/10/24 10:28:17;;;;;;;;;;;;;;;17.67;75.86;100594.44;5117451;28;20038;-35
2022/10/24 10:30:49;;;;;;;8.65;2.20;;;;;;;17.55;74.70;100604.09;5116931;28;19915;-35
2022/10/24 10:33:24;;;;;;;8.88;1.60;;;;;;;17.39;75.20;100595.97;5116526;28;20468;-35
2022/10/24 10:35:59;;;;;;;9.63;2.28;;;;;;;17.33;75.49;100621.72;5116929;28;20499;-35
2022/10/24 10:38:31;;;;;;;6.15;1.83;;;;;;;17.25;76.68;100616.81;5116808;28;20345;-35
2022/10/24 10:41:07;;;;;;;10.35;2.20;;;;;;;17.20;77.87;100612.19;5116087;28;20034;-35
2022/10/24 10:43:57;;;;;;;5.68;1.70;;;;;;;17.13;78.42;100616.31;5116443;28;20464;-35
2022/10/24 10:46:43;;;;;;;5.45;1.60;;;;;;;17.04;78.60;100624.31;5116497;28;20016;-35
2022/10/24 10:49:14;;;;;;;6.53;1.60;;;;;;;17.19;78.42;100616.03;5117161;28;20390;-35
2022/10/24 10:52:06;;;;;;;8.35;1.88;;;;;;;17.41;79.11;100617.56;5116413;28;20032;-35
2022/10/24 10:54:50;;;;;;;8.07;2.10;;;;;;;17.43;77.08;100623.56;5116517;28;20039;-35
2022/10/24 10:57:23;;;;;;;9.00;1.92;;;;;;;17.36;75.88;100629.31;5116362;28;20023;-35
2022/10/24 11:00:01;;;;;;;9.20;1.98;;;;;;;17.22;75.85;100637.31;5116716;28;20186;-35
2022/10/24 11:02:29;;;;;;;5.75;1.80;;;;;;;17.16;77.16;100641.19;5115273;28;20023;-35
2022/10/24 11:05:27;;;;;;;6.43;1.52;;;;;;;17.02;76.98;100628.41;5115671;28;20130;-35
2022/10/24 11:07:55;;;;;;;9.00;2.03;;;;;;;16.92;76.96;100631.97;5114674;28;20138;-35
2022/10/24 11:10:26;;;;;;;7.20;2.08;;;;;;;16.89;76.71;100632.56;5115591;28;20036;-35
2022/10/24 11:12:54;;;;;;;7.25;1.90;;;;;;;17.04;77.39;100628.94;5115916;28;20124;-35
2022/10/24 11:15:26;;;;;;;5.47;1.90;;;;;;;17.21;76.61;100634.88;5115841;28;20020;-35
2022/10/24 11:17:57;;;;;;;5.85;1.63;;;;;;;17.33;76.90;100626.38;5115809;28;20027;-35
2022/10/24 11:20:30;;;;;;;8.25;2.03;;;;;;;17.51;77.25;100639.38;5115478;28;20424;-35
2022/10/24 11:23:05;;;;;;;5.88;2.25;;;;;;;17.66;77.24;100639.25;5116248;27;20372;-35
2022/10/24 11:25:35;;;;;;;6.68;1.83;;;;;;;17.75;77.07;100634.06;5115916;28;20051;-35
2022/10/24 11:28:30;;;;;;;7.82;1.77;;;;;;;17.90;76.83;100646.81;5116115;28;20031;-35
2022/10/24 11:31:22;;;;;;;8.73;1.60;;;;;;;17.90;77.06;100639.41;5115777;28;20035;-35
2022/10/24 11:33:56;;;;;;;6.47;1.50;;;;;;;17.96;76.98;100645.69;5115517;28;20020;-35
2022/10/24 11:36:54;;;;;;;6.72;2.22;;;;;;;18.00;77.49;100652.19;5114649;28;20023;-35
2022/10/24 11:39:28;;;;;;;8.80;2.08;;;;;;;18.09;76.65;100644.19;5093254;28;20040;-35
2022/10/24 11:42:20;;;;;;;5.82;1.75;;;;;;;18.11;75.07;100642.81;5093213;28;20032;-35
2022/10/24 11:45:17;;;;;;;6.90;1.67;;;;;;;18.21;75.45;100653.69;5092945;28;20408;-35